ADDS TAF Data INFO
IDs: Format: Raw Decoded Include METARs

Data at: 0647 UTC 21 Jan 2018

KLWB 210635Z AUTO 27007KT 10SM OVC015 07/04 A3018 RMK AO2 T00730043

KLWB 210520Z 2106/2206 27004KT P6SM BKN025
  FM211000 27003KT P6SM BKN035
  FM211600 22004KT P6SM BKN050
  FM220000 00000KT P6SM SCT040